Jefferson, Ohio
Current Conditions -  °F | °C
As of 5:28 PM on Monday 26 Jan 2015 (Local Time) from KHZY Reporting Station
Light Snow Light Snow  
Wind Chill: 11°   Ceiling: 1300
Heat Index: 20°   Visibility: 2.5mi
Dew Point: 15°   Wind: 7mph
Humidity: 81%   Direction: 10°N
Pressure: 29.84"   Gusts: NA
Location:  41.74°N, 80.77°W
Report Text: KHZY 262228Z AUTO 01006KT 2 1/2SM -SN BKN013 OVC020 M07/M09 A2984 RMK AO2 SNB04 P0000 T10671094
Loading
Personal Weather Stations






























Interactive Weather Map New forecast layout! Learn more

10-Day Weather Forecast

Advertisements
Track Severe Weather on mobile